createdAt,value
2022-11-10T00:01:06.242Z,8.10
2022-11-10T00:03:33.213Z,8.10
2022-11-10T00:06:02.859Z,8.10
2022-11-10T00:08:29.503Z,8.00
2022-11-10T00:10:59.153Z,8.00
2022-11-10T00:13:32.561Z,8.10
2022-11-10T00:16:23.707Z,8.00
2022-11-10T00:18:51.002Z,8.00
2022-11-10T00:21:18.479Z,8.00
2022-11-10T00:23:47.717Z,8.00
2022-11-10T00:26:17.381Z,8.00
2022-11-10T00:28:44.871Z,8.00
2022-11-10T00:31:12.307Z,8.00
2022-11-10T00:33:40.785Z,8.00
2022-11-10T00:36:07.656Z,8.00
2022-11-10T00:38:34.416Z,8.00
2022-11-10T00:41:01.956Z,8.10
2022-11-10T00:43:30.157Z,8.10
2022-11-10T00:45:57.545Z,8.00
2022-11-10T00:48:24.313Z,7.90
2022-11-10T00:50:51.543Z,7.90
2022-11-10T00:53:18.830Z,7.90
2022-11-10T00:55:45.749Z,7.90
2022-11-10T00:58:12.481Z,7.80
2022-11-10T01:00:39.097Z,7.80
2022-11-10T01:03:06.391Z,7.70
2022-11-10T01:05:37.156Z,7.70
2022-11-10T01:08:04.579Z,7.60
2022-11-10T01:10:31.333Z,7.70
2022-11-10T01:12:58.669Z,7.70
2022-11-10T01:15:27.846Z,7.80
2022-11-10T01:17:56.059Z,7.90
2022-11-10T01:20:23.411Z,7.90
2022-11-10T01:22:50.030Z,7.90
2022-11-10T01:25:16.773Z,7.90
2022-11-10T01:27:43.405Z,8.00
2022-11-10T01:30:10.493Z,8.00
2022-11-10T01:32:37.206Z,8.10
2022-11-10T01:35:04.134Z,8.20
2022-11-10T01:37:30.775Z,8.40
2022-11-10T01:39:57.394Z,8.50
2022-11-10T01:42:26.209Z,8.50
2022-11-10T01:45:24.024Z,8.60
2022-11-10T01:47:59.622Z,8.80
2022-11-10T01:50:28.963Z,8.90
2022-11-10T01:52:59.867Z,8.90
2022-11-10T01:55:27.426Z,9.00
2022-11-10T01:57:55.375Z,9.00
2022-11-10T02:00:22.772Z,9.20
2022-11-10T02:03:21.447Z,9.20
2022-11-10T02:05:50.069Z,9.20
2022-11-10T02:08:18.927Z,9.20
2022-11-10T02:10:45.527Z,9.20
2022-11-10T02:13:12.400Z,9.20
2022-11-10T02:15:39.760Z,9.20
2022-11-10T02:18:06.372Z,9.20
2022-11-10T02:20:33.140Z,9.10
2022-11-10T02:23:10.074Z,9.10
2022-11-10T02:25:37.561Z,9.10
2022-11-10T02:28:04.277Z,9.10
2022-11-10T02:30:30.991Z,9.20
2022-11-10T02:32:57.691Z,9.20
2022-11-10T02:35:24.331Z,9.20
2022-11-10T02:37:50.913Z,9.20
2022-11-10T02:40:17.615Z,9.20
2022-11-10T02:42:44.240Z,9.10
2022-11-10T02:45:10.981Z,9.10
2022-11-10T02:47:37.819Z,9.00
2022-11-10T02:50:04.627Z,9.00
2022-11-10T02:52:31.201Z,9.00
2022-11-10T02:54:57.870Z,9.00
2022-11-10T02:57:24.466Z,9.00
2022-11-10T02:59:51.118Z,9.00
2022-11-10T03:02:17.728Z,9.00
2022-11-10T03:04:44.384Z,9.00
2022-11-10T03:07:11.088Z,9.00
2022-11-10T03:09:37.789Z,9.00
2022-11-10T03:12:04.533Z,9.00
2022-11-10T03:14:31.258Z,9.00
2022-11-10T03:16:57.861Z,8.90
2022-11-10T03:19:24.457Z,8.90
2022-11-10T03:21:51.172Z,8.90
2022-11-10T03:24:17.760Z,8.80
2022-11-10T03:26:44.462Z,8.60
2022-11-10T03:29:11.078Z,8.40
2022-11-10T03:31:37.710Z,8.30
2022-11-10T03:34:04.299Z,8.10
2022-11-10T03:36:30.904Z,8.00
2022-11-10T03:38:57.469Z,7.90
2022-11-10T03:41:24.134Z,7.90
2022-11-10T03:43:50.814Z,7.90
2022-11-10T03:46:18.332Z,7.90
2022-11-10T03:48:51.824Z,7.90
2022-11-10T03:51:20.001Z,7.90
2022-11-10T03:53:46.682Z,7.90
2022-11-10T03:56:13.291Z,7.90
2022-11-10T03:58:40.694Z,7.90
2022-11-10T04:01:07.502Z,7.70
2022-11-10T04:03:34.415Z,7.90
2022-11-10T04:06:19.755Z,8.10
2022-11-10T04:09:01.444Z,7.90
2022-11-10T04:11:48.890Z,7.70
2022-11-10T04:14:35.066Z,7.60
2022-11-10T04:17:02.277Z,7.50
2022-11-10T04:19:29.148Z,7.40
2022-11-10T04:21:56.154Z,7.30
2022-11-10T04:24:22.856Z,7.40
2022-11-10T04:26:49.666Z,7.30
2022-11-10T04:29:18.367Z,7.20
2022-11-10T04:31:45.236Z,7.20
2022-11-10T04:34:14.112Z,7.30
2022-11-10T04:36:43.013Z,7.30
2022-11-10T04:39:10.678Z,7.20
2022-11-10T04:41:37.904Z,7.10
2022-11-10T04:44:05.080Z,7.10
2022-11-10T04:46:38.955Z,7.10
2022-11-10T04:49:07.145Z,7.10
2022-11-10T04:51:35.899Z,7.10
2022-11-10T04:54:03.652Z,7.10
2022-11-10T04:56:30.581Z,7.10
2022-11-10T04:58:57.428Z,7.10
2022-11-10T05:01:26.875Z,7.10
2022-11-10T05:03:54.605Z,7.20
2022-11-10T05:06:21.701Z,7.20
2022-11-10T05:08:48.657Z,7.20
2022-11-10T05:11:15.514Z,7.20
2022-11-10T05:13:43.012Z,7.20
2022-11-10T05:16:10.410Z,7.20
2022-11-10T05:18:37.031Z,7.30
2022-11-10T05:21:03.922Z,7.30
2022-11-10T05:23:39.701Z,7.30
2022-11-10T05:26:14.930Z,7.40
2022-11-10T05:28:43.755Z,7.40
2022-11-10T05:31:11.536Z,7.40
2022-11-10T05:33:38.595Z,7.40
2022-11-10T05:36:06.979Z,7.40
2022-11-10T05:38:37.552Z,7.30
2022-11-10T05:41:07.114Z,7.40
2022-11-10T05:43:33.668Z,7.30
2022-11-10T05:46:00.591Z,7.30
2022-11-10T05:48:27.157Z,7.30
2022-11-10T05:50:53.988Z,7.20
2022-11-10T05:53:20.847Z,7.10
2022-11-10T05:55:47.641Z,7.20
2022-11-10T05:58:14.388Z,7.30
2022-11-10T06:00:41.001Z,7.30
2022-11-10T06:03:13.925Z,7.30
2022-11-10T06:05:40.763Z,7.30
2022-11-10T06:08:07.830Z,7.30
2022-11-10T06:10:35.923Z,7.20
2022-11-10T06:13:03.333Z,7.30
2022-11-10T06:15:30.409Z,7.30
2022-11-10T06:17:57.860Z,7.30
2022-11-10T06:20:25.812Z,7.30
2022-11-10T06:23:04.933Z,7.30
2022-11-10T06:25:34.038Z,7.40
2022-11-10T06:28:01.456Z,7.30
2022-11-10T06:30:28.879Z,7.30
2022-11-10T06:32:55.941Z,7.40
2022-11-10T06:35:24.105Z,7.40
2022-11-10T06:38:07.825Z,7.40
2022-11-10T06:40:34.672Z,7.40
2022-11-10T06:43:01.724Z,7.40
2022-11-10T06:45:28.837Z,7.40
2022-11-10T06:48:12.008Z,7.40
2022-11-10T06:50:38.724Z,7.40
2022-11-10T06:53:05.526Z,7.40
2022-11-10T06:55:32.443Z,7.40
2022-11-10T06:57:59.464Z,7.40
2022-11-10T07:00:27.645Z,7.40
2022-11-10T07:03:05.528Z,7.50
2022-11-10T07:05:34.705Z,7.50
2022-11-10T07:08:16.327Z,7.50
2022-11-10T07:10:45.115Z,7.50
2022-11-10T07:13:12.150Z,7.40
2022-11-10T07:15:38.795Z,7.50
2022-11-10T07:18:05.530Z,7.50
2022-11-10T07:20:32.412Z,7.50
2022-11-10T07:23:00.537Z,7.60
2022-11-10T07:25:28.618Z,7.80
2022-11-10T07:27:59.886Z,8.00
2022-11-10T07:30:30.610Z,8.20
2022-11-10T07:33:02.302Z,8.30
2022-11-10T07:35:30.629Z,8.50
2022-11-10T07:37:58.607Z,8.70
2022-11-10T07:40:25.244Z,8.80
2022-11-10T07:42:52.086Z,8.80
2022-11-10T07:45:18.686Z,9.10
2022-11-10T07:47:45.372Z,9.20
2022-11-10T07:50:12.124Z,9.30
2022-11-10T07:52:38.954Z,9.50
2022-11-10T07:55:06.761Z,9.70
2022-11-10T07:57:33.684Z,9.80
2022-11-10T08:00:00.595Z,9.90
2022-11-10T08:02:27.337Z,9.70
2022-11-10T08:04:54.085Z,9.60
2022-11-10T08:07:20.890Z,9.60
2022-11-10T08:09:47.657Z,9.80
2022-11-10T08:12:14.239Z,9.80
2022-11-10T08:14:40.954Z,9.80
2022-11-10T08:17:07.691Z,10.00
2022-11-10T08:19:34.282Z,10.00
2022-11-10T08:22:00.887Z,9.90
2022-11-10T08:24:27.545Z,10.10
2022-11-10T08:26:54.133Z,10.20
2022-11-10T08:29:20.963Z,10.20
2022-11-10T08:31:47.609Z,10.20
2022-11-10T08:34:14.775Z,10.20
2022-11-10T08:36:41.425Z,10.30
2022-11-10T08:39:08.057Z,10.40
2022-11-10T08:41:34.673Z,10.40
2022-11-10T08:44:01.327Z,10.60
2022-11-10T08:46:27.948Z,10.80
2022-11-10T08:48:54.589Z,10.80
2022-11-10T08:51:22.230Z,10.70
2022-11-10T08:53:48.823Z,10.50
2022-11-10T08:56:15.477Z,10.20
2022-11-10T08:58:50.150Z,10.20
2022-11-10T09:01:20.513Z,10.10
2022-11-10T09:03:47.124Z,10.00
2022-11-10T09:06:13.711Z,10.00
2022-11-10T09:08:40.316Z,9.90
2022-11-10T09:11:07.039Z,9.80
2022-11-10T09:13:34.004Z,9.90
2022-11-10T09:16:02.403Z,9.90
2022-11-10T09:18:29.711Z,9.90
2022-11-10T09:20:56.483Z,9.90
2022-11-10T09:23:25.187Z,9.80
2022-11-10T09:25:54.186Z,9.80
2022-11-10T09:28:21.697Z,9.90
2022-11-10T09:30:50.167Z,9.90
2022-11-10T09:33:20.099Z,9.70
2022-11-10T09:35:47.169Z,9.70
2022-11-10T09:38:13.979Z,9.80
2022-11-10T09:41:03.249Z,9.80
2022-11-10T09:43:44.550Z,10.10
2022-11-10T09:46:19.270Z,10.30
2022-11-10T09:48:53.739Z,10.40
2022-11-10T09:51:29.547Z,10.60
2022-11-10T09:54:32.851Z,11.00
2022-11-10T09:57:00.853Z,11.40
2022-11-10T09:59:32.463Z,11.50
2022-11-10T10:02:05.271Z,11.40
2022-11-10T10:04:51.703Z,11.40
2022-11-10T10:07:26.381Z,11.50
2022-11-10T10:10:18.121Z,11.50
2022-11-10T10:12:51.798Z,11.60
2022-11-10T10:15:26.946Z,11.70
2022-11-10T10:18:06.931Z,12.10
2022-11-10T10:20:50.018Z,12.50
2022-11-10T10:26:41.260Z,12.70
2022-11-10T10:29:11.179Z,12.60
2022-11-10T10:31:45.364Z,12.30
2022-11-10T10:34:16.170Z,12.10
2022-11-10T10:36:44.396Z,12.00
2022-11-10T10:39:13.844Z,12.00
2022-11-10T10:41:43.917Z,11.90
2022-11-10T10:44:13.597Z,11.80
2022-11-10T10:46:47.847Z,11.70
2022-11-10T10:49:30.056Z,11.60
2022-11-10T10:52:04.885Z,11.50
2022-11-10T10:54:33.646Z,11.50
2022-11-10T10:57:24.382Z,11.50
2022-11-10T10:59:52.055Z,11.60
2022-11-10T11:02:32.226Z,11.60
2022-11-10T11:05:19.322Z,12.00
2022-11-10T11:08:00.211Z,12.50
2022-11-10T11:10:31.847Z,12.80
2022-11-10T11:13:14.249Z,12.50
2022-11-10T11:15:40.985Z,12.50
2022-11-10T11:18:18.486Z,12.30
2022-11-10T11:21:12.976Z,12.30
2022-11-10T11:24:19.484Z,12.30
2022-11-10T11:26:55.514Z,12.30
2022-11-10T11:29:34.390Z,12.50
2022-11-10T11:32:28.948Z,12.80
2022-11-10T11:35:15.726Z,12.50
2022-11-10T11:38:02.056Z,12.60
2022-11-10T11:40:58.196Z,12.30
2022-11-10T11:43:49.895Z,12.00
2022-11-10T11:46:28.860Z,11.90
2022-11-10T11:49:24.246Z,11.90
2022-11-10T11:52:11.898Z,12.00
2022-11-10T11:54:58.620Z,12.10
2022-11-10T11:57:37.221Z,12.30
2022-11-10T12:00:16.866Z,12.40
2022-11-10T12:02:57.569Z,12.30
2022-11-10T12:05:33.034Z,12.30
2022-11-10T12:08:18.065Z,12.40
2022-11-10T12:11:11.172Z,12.30
2022-11-10T12:13:50.618Z,12.30
2022-11-10T12:16:25.447Z,12.60
2022-11-10T12:19:04.058Z,12.60
2022-11-10T12:21:48.605Z,12.70
2022-11-10T12:24:53.343Z,12.80
2022-11-10T12:27:28.483Z,13.00
2022-11-10T12:30:09.484Z,13.00
2022-11-10T12:33:04.058Z,13.20
2022-11-10T12:35:35.345Z,13.10
2022-11-10T12:38:16.487Z,13.00
2022-11-10T12:40:58.986Z,13.00
2022-11-10T12:44:13.975Z,12.90
2022-11-10T12:46:45.980Z,12.90
2022-11-10T12:49:28.425Z,12.90
2022-11-10T12:52:10.381Z,12.90
2022-11-10T12:54:44.496Z,13.00
2022-11-10T12:57:20.490Z,13.00
2022-11-10T12:59:59.223Z,12.90
2022-11-10T13:02:40.702Z,13.10
2022-11-10T13:05:27.439Z,13.00
2022-11-10T13:08:25.502Z,13.00
2022-11-10T13:11:20.181Z,12.90
2022-11-10T13:13:59.473Z,12.80
2022-11-10T13:16:41.834Z,12.60
2022-11-10T13:19:10.390Z,12.60
2022-11-10T13:21:52.259Z,12.50
2022-11-10T13:24:27.631Z,12.50
2022-11-10T13:26:56.030Z,12.50
2022-11-10T13:29:42.641Z,12.50
2022-11-10T13:32:15.430Z,12.50
2022-11-10T13:34:43.879Z,12.50
2022-11-10T13:37:29.187Z,12.50
2022-11-10T13:40:20.894Z,12.50
2022-11-10T13:42:59.503Z,12.50
2022-11-10T13:45:36.942Z,12.60
2022-11-10T13:48:35.181Z,12.60
2022-11-10T13:51:24.355Z,12.50
2022-11-10T13:54:18.925Z,12.60
2022-11-10T13:56:57.799Z,12.50
2022-11-10T13:59:30.624Z,12.50
2022-11-10T14:02:34.734Z,12.50
2022-11-10T14:05:02.305Z,12.50
2022-11-10T14:07:43.295Z,12.50
2022-11-10T14:10:16.190Z,12.50
2022-11-10T14:12:55.666Z,12.40
2022-11-10T14:15:37.487Z,12.30
2022-11-10T14:18:27.051Z,12.20
2022-11-10T14:21:01.958Z,12.20
2022-11-10T14:23:31.556Z,12.20
2022-11-10T14:26:05.912Z,12.20
2022-11-10T14:28:35.075Z,12.20
2022-11-10T14:31:01.796Z,12.20
2022-11-10T14:33:28.619Z,12.20
2022-11-10T14:36:01.537Z,12.20
2022-11-10T14:38:33.979Z,12.10
2022-11-10T14:41:02.711Z,12.10
2022-11-10T14:43:37.121Z,12.10
2022-11-10T14:46:05.892Z,12.10
2022-11-10T14:48:35.335Z,12.20
2022-11-10T14:51:04.939Z,12.10
2022-11-10T14:53:34.012Z,12.10
2022-11-10T14:56:02.792Z,12.10
2022-11-10T14:58:39.085Z,12.00
2022-11-10T15:01:07.556Z,12.00
2022-11-10T15:03:39.562Z,12.00
2022-11-10T15:06:10.048Z,11.90
2022-11-10T15:08:37.804Z,11.90
2022-11-10T15:11:05.066Z,11.80
2022-11-10T15:13:33.235Z,11.80
2022-11-10T15:16:38.609Z,11.70
2022-11-10T15:19:31.109Z,11.70
2022-11-10T15:22:06.753Z,11.60
2022-11-10T15:24:33.517Z,11.60
2022-11-10T15:27:00.657Z,11.50
2022-11-10T15:29:29.958Z,11.50
2022-11-10T15:31:56.564Z,11.40
2022-11-10T15:34:38.595Z,11.40
2022-11-10T15:37:12.707Z,11.30
2022-11-10T15:39:39.410Z,11.30
2022-11-10T15:42:21.385Z,11.20
2022-11-10T15:44:48.300Z,11.10
2022-11-10T15:47:17.796Z,11.10
2022-11-10T15:49:44.850Z,11.10
2022-11-10T15:52:22.531Z,11.00
2022-11-10T15:54:50.748Z,11.00
2022-11-10T15:57:19.262Z,10.90
2022-11-10T15:59:45.929Z,10.90
2022-11-10T16:02:21.190Z,10.80
2022-11-10T16:04:52.418Z,10.80
2022-11-10T16:07:21.732Z,10.70
2022-11-10T16:09:48.394Z,10.70
2022-11-10T16:12:19.221Z,10.60
2022-11-10T16:14:50.873Z,10.60
2022-11-10T16:17:18.514Z,10.60
2022-11-10T16:19:46.736Z,10.60
2022-11-10T16:22:13.721Z,10.60
2022-11-10T16:24:40.876Z,10.60
2022-11-10T16:27:11.614Z,10.60
2022-11-10T16:29:38.279Z,10.50
2022-11-10T16:32:05.617Z,10.50
2022-11-10T16:34:32.336Z,10.40
2022-11-10T16:37:00.004Z,10.40
2022-11-10T16:39:27.528Z,10.30
2022-11-10T16:41:54.151Z,10.30
2022-11-10T16:44:25.356Z,10.20
2022-11-10T16:46:55.991Z,10.20
2022-11-10T16:49:34.205Z,10.10
2022-11-10T16:52:12.100Z,10.10
2022-11-10T16:54:38.860Z,10.10
2022-11-10T16:57:16.596Z,10.00
2022-11-10T16:59:45.710Z,9.90
2022-11-10T17:02:35.640Z,9.80
2022-11-10T17:05:02.559Z,9.80
2022-11-10T17:07:29.739Z,9.70
2022-11-10T17:09:58.831Z,9.60
2022-11-10T17:12:25.453Z,9.60
2022-11-10T17:14:52.138Z,9.60
2022-11-10T17:17:19.665Z,9.50
2022-11-10T17:19:48.495Z,9.50
2022-11-10T17:22:19.434Z,9.40
2022-11-10T17:24:52.479Z,9.40
2022-11-10T17:27:20.078Z,9.40
2022-11-10T17:29:47.072Z,9.40
2022-11-10T17:32:13.717Z,9.30
2022-11-10T17:34:40.346Z,9.30
2022-11-10T17:37:10.572Z,9.30
2022-11-10T17:39:37.210Z,9.20
2022-11-10T17:42:03.965Z,9.20
2022-11-10T17:44:30.612Z,9.10
2022-11-10T17:46:57.265Z,9.10
2022-11-10T17:49:23.851Z,9.10
2022-11-10T17:51:50.944Z,9.10
2022-11-10T17:54:17.854Z,9.10
2022-11-10T17:56:44.492Z,9.20
2022-11-10T17:59:11.196Z,9.20
2022-11-10T18:01:37.943Z,9.20
2022-11-10T18:04:04.580Z,9.20
2022-11-10T18:06:31.264Z,9.20
2022-11-10T18:08:58.029Z,9.10
2022-11-10T18:11:24.646Z,9.20
2022-11-10T18:13:51.381Z,9.20
2022-11-10T18:16:18.120Z,9.20
2022-11-10T18:18:44.725Z,9.20
2022-11-10T18:21:12.016Z,9.20
2022-11-10T18:23:38.646Z,9.10
2022-11-10T18:26:07.343Z,9.10
2022-11-10T18:28:34.866Z,9.00
2022-11-10T18:31:09.644Z,9.00
2022-11-10T18:33:36.799Z,8.90
2022-11-10T18:36:03.940Z,8.90
2022-11-10T18:38:30.677Z,8.80
2022-11-10T18:41:21.280Z,8.80
2022-11-10T18:43:47.856Z,8.80
2022-11-10T18:46:14.553Z,8.70
2022-11-10T18:48:41.264Z,8.60
2022-11-10T18:51:08.643Z,8.60
2022-11-10T18:53:38.218Z,8.60
2022-11-10T18:56:05.512Z,8.50
2022-11-10T18:58:32.145Z,8.40
2022-11-10T19:01:06.716Z,8.40
2022-11-10T19:03:34.946Z,8.50
2022-11-10T19:06:01.882Z,8.40
2022-11-10T19:08:28.893Z,8.40
2022-11-10T19:10:57.035Z,8.30
2022-11-10T19:13:24.326Z,8.40
2022-11-10T19:15:51.342Z,8.40
2022-11-10T19:18:18.029Z,8.50
2022-11-10T19:20:44.670Z,8.50
2022-11-10T19:23:11.422Z,8.50
2022-11-10T19:25:38.070Z,8.40
2022-11-10T19:28:04.700Z,8.30
2022-11-10T19:30:31.499Z,8.30
2022-11-10T19:32:58.078Z,8.40
2022-11-10T19:35:24.824Z,8.40
2022-11-10T19:37:53.988Z,8.40
2022-11-10T19:40:21.471Z,8.40
2022-11-10T19:42:48.737Z,8.30
2022-11-10T19:45:16.589Z,8.30
2022-11-10T19:47:43.637Z,8.30
2022-11-10T19:50:10.399Z,8.20
2022-11-10T19:52:37.112Z,8.10
2022-11-10T19:55:03.965Z,8.10
2022-11-10T19:57:30.593Z,8.10
2022-11-10T19:59:57.243Z,8.10
2022-11-10T20:02:24.086Z,8.10
2022-11-10T20:05:09.384Z,8.10
2022-11-10T20:07:54.456Z,8.10
2022-11-10T20:10:21.178Z,8.00
2022-11-10T20:12:47.836Z,8.00
2022-11-10T20:15:14.468Z,7.90
2022-11-10T20:17:41.402Z,7.90
2022-11-10T20:20:08.806Z,7.80
2022-11-10T20:22:35.806Z,7.80
2022-11-10T20:25:02.840Z,7.80
2022-11-10T20:27:30.006Z,7.80
2022-11-10T20:29:56.742Z,7.90
2022-11-10T20:32:23.492Z,7.90
2022-11-10T20:34:50.334Z,8.00
2022-11-10T20:37:17.119Z,8.00
2022-11-10T20:39:43.789Z,8.00
2022-11-10T20:42:10.416Z,8.10
2022-11-10T20:44:37.113Z,8.10
2022-11-10T20:47:04.510Z,8.10
2022-11-10T20:49:31.176Z,8.10
2022-11-10T20:51:59.830Z,8.10
2022-11-10T20:54:27.185Z,8.10
2022-11-10T20:56:54.117Z,8.10
2022-11-10T20:59:20.804Z,8.10
2022-11-10T21:01:47.545Z,8.00
2022-11-10T21:04:14.295Z,7.90
2022-11-10T21:06:41.028Z,7.90
2022-11-10T21:09:07.802Z,7.80
2022-11-10T21:11:53.545Z,7.80
2022-11-10T21:14:20.172Z,7.80
2022-11-10T21:16:46.916Z,7.70
2022-11-10T21:19:13.544Z,7.70
2022-11-10T21:21:40.520Z,7.70
2022-11-10T21:24:08.189Z,7.60
2022-11-10T21:26:35.646Z,7.60
2022-11-10T21:29:03.259Z,7.50
2022-11-10T21:31:30.714Z,7.40
2022-11-10T21:33:58.423Z,7.40
2022-11-10T21:36:29.236Z,7.30
2022-11-10T21:38:57.468Z,7.30
2022-11-10T21:41:24.995Z,7.30
2022-11-10T21:43:51.702Z,7.20
2022-11-10T21:46:18.666Z,7.20
2022-11-10T21:48:45.418Z,7.20
2022-11-10T21:51:14.154Z,7.20
2022-11-10T21:53:41.891Z,7.10
2022-11-10T21:56:10.782Z,7.10
2022-11-10T21:58:38.393Z,7.00
2022-11-10T22:01:13.488Z,7.00
2022-11-10T22:03:40.602Z,6.90
2022-11-10T22:06:09.985Z,6.90
2022-11-10T22:08:37.560Z,6.90
2022-11-10T22:11:23.564Z,6.90
2022-11-10T22:14:09.148Z,6.90
2022-11-10T22:17:03.931Z,6.90
2022-11-10T22:19:31.728Z,6.80
2022-11-10T22:22:03.271Z,6.80
2022-11-10T22:24:30.523Z,6.80
2022-11-10T22:27:02.055Z,6.70
2022-11-10T22:29:31.977Z,6.70
2022-11-10T22:32:02.223Z,6.60
2022-11-10T22:34:28.922Z,6.60
2022-11-10T22:36:55.811Z,6.60
2022-11-10T22:39:22.438Z,6.60
2022-11-10T22:42:07.804Z,6.60
2022-11-10T22:44:34.487Z,6.60
2022-11-10T22:47:01.237Z,6.60
2022-11-10T22:49:27.947Z,6.60
2022-11-10T22:51:55.518Z,6.50
2022-11-10T22:54:23.581Z,6.50
2022-11-10T22:56:51.366Z,6.50
2022-11-10T22:59:18.891Z,6.40
2022-11-10T23:01:45.805Z,6.40
2022-11-10T23:04:12.552Z,6.40
2022-11-10T23:06:39.353Z,6.40
2022-11-10T23:09:06.292Z,6.40
2022-11-10T23:11:33.390Z,6.30
2022-11-10T23:14:00.139Z,6.30
2022-11-10T23:16:29.736Z,6.30
2022-11-10T23:18:57.724Z,6.20
2022-11-10T23:21:27.017Z,6.20
2022-11-10T23:23:54.120Z,6.30
2022-11-10T23:26:23.775Z,6.20
2022-11-10T23:28:51.484Z,6.20
2022-11-10T23:31:19.314Z,6.10
2022-11-10T23:33:47.954Z,6.10
2022-11-10T23:36:19.251Z,6.10
2022-11-10T23:38:47.134Z,6.20
2022-11-10T23:41:18.701Z,6.20
2022-11-10T23:43:45.869Z,6.20
2022-11-10T23:46:13.054Z,6.20
2022-11-10T23:48:40.227Z,6.10
2022-11-10T23:51:09.525Z,6.10
2022-11-10T23:53:36.280Z,6.10
2022-11-10T23:56:06.180Z,6.10
2022-11-10T23:58:33.062Z,6.10
